Flight Track Log - Related Links

Times and Time Zones

All times are in EDT time to prevent confusion due to time zone crossing. See the N600TR flight status page for this flight to view local times or setup timezone preferences in your user account.

Time Position Orientation Groundspeed Altitude Reporting Facility
EDT Latitude Longitude Course Direction KTS MPH feet Rate Location/Type
Mon 09:01:31 AM 33.6500 -84.4500 280° West 147 169 2,200  Level Atlanta TRACON
Mon 09:02:37 AM 33.6667 -84.5333 284° West 249 287 4,300 2,050 Climbing Atlanta TRACON
Mon 09:03:31 AM 33.6833 -84.6000 287° West 272 313 6,300 2,368 Climbing Atlanta TRACON
Mon 09:04:31 AM 33.7000 -84.7000 281° West 280 322 8,800 2,149 Climbing Atlanta TRACON
Mon 09:05:00 AM 33.6963 -84.9740 280° West  Level FlightAware Approximate
Mon 09:06:00 AM 33.7122 -85.0849 280° West  Level FlightAware Approximate
Mon 09:06:52 AM 33.7178 -84.9578 275° West 337 388 13,500  Level Atlanta Center
Mon 09:07:52 AM 33.7253 -85.0728 275° West 343 395 15,500 1,950 Climbing Atlanta Center
Mon 09:08:52 AM 33.7222 -85.1903 268° West 355 409 17,400 1,250 Climbing Atlanta Center
Mon 09:09:52 AM 33.7022 -85.3147 259° West 373 429 18,000 300 Climbing Atlanta Center
Mon 09:10:52 AM 33.6839 -85.4517 261° West 406 467 18,000 -650 Level Atlanta Center
Mon 09:11:52 AM 33.6800 -85.5939 268° West 432 497 16,700 -1,388 Descending Atlanta Center
Mon 09:12:53 AM 33.6847 -85.7214 273° West 388 447 15,200 -1,500 Descending Atlanta Center
Mon 09:13:48 AM 33.6936 -85.8364 275° West 373 429 13,800 -1,596 Descending Atlanta Center
Mon 09:14:42 AM 33.7000 -85.9564 274° West 379 436 12,300 -1,541 Descending Atlanta Center
Mon 09:15:37 AM 33.7022 -86.0739 271° West 381 438 11,000 -1,015 Descending Atlanta Center
Mon 09:16:52 AM 33.7064 -86.1964 272° West 350 403 10,100 -1,173 Descending Atlanta Center
Mon 09:17:50 AM 33.7028 -86.2936 267° West 270 311 8,400 -1,714 Descending Atlanta Center
Mon 09:18:51 AM 33.6803 -86.3778 252° West 269 310 6,700 -1,672 Descending Atlanta Center
Mon 09:19:52 AM 33.6597 -86.4647 254° West 267 307 5,000 -1,488 Descending Atlanta Center
Mon 09:20:52 AM 33.6436 -86.5367 255° West 273 314 3,700 -1,050 Descending Atlanta Center
Mon 09:21:52 AM 33.6403 -86.6064 267° West 246 283 2,900 -756 Descending Atlanta Center
Mon 09:22:59 AM 33.6117 -86.6728 243° Southwest 163 188 2,100 -738 Descending Atlanta Center
Mon 09:23:54 AM 33.5922 -86.7072 236° Southwest 144 166 1,400 -764 Descending Atlanta Center
Mon 09:25:00 AM 33.5639 -86.7523 255° West  Level Estimated
Mon 09:32:00 AM 33.5639 -86.7523 255° West  Level Estimated
Mon 09:33:00 AM 33.5639 -86.7523 255° West  Level Estimated

Login

Don't have an account? Register now (free) for customized features, flight alerts, and more!